sensor_id;sensor_type;location;lat;lon;timestamp;P1;durP1;ratioP1;P2;durP2;ratioP2
4214;SDS011;2121;48.062;7.850;2023-04-24T00:00:10;1.50;;;1.40;;
4214;SDS011;2121;48.062;7.850;2023-04-24T00:02:39;1.30;;;1.20;;
4214;SDS011;2121;48.062;7.850;2023-04-24T00:05:11;1.30;;;1.20;;
4214;SDS011;2121;48.062;7.850;2023-04-24T00:07:39;4.60;;;2.90;;
4214;SDS011;2121;48.062;7.850;2023-04-24T00:10:06;1.70;;;1.60;;
4214;SDS011;2121;48.062;7.850;2023-04-24T00:12:33;1.23;;;1.23;;
4214;SDS011;2121;48.062;7.850;2023-04-24T00:15:00;10.70;;;1.93;;
4214;SDS011;2121;48.062;7.850;2023-04-24T00:17:26;1.20;;;1.10;;
4214;SDS011;2121;48.062;7.850;2023-04-24T00:19:52;1.20;;;1.20;;
4214;SDS011;2121;48.062;7.850;2023-04-24T00:22:23;2.93;;;2.30;;
4214;SDS011;2121;48.062;7.850;2023-04-24T00:24:50;1.80;;;1.70;;
4214;SDS011;2121;48.062;7.850;2023-04-24T00:27:16;1.53;;;1.33;;
4214;SDS011;2121;48.062;7.850;2023-04-24T00:29:42;1.50;;;1.40;;
4214;SDS011;2121;48.062;7.850;2023-04-24T00:32:07;1.20;;;1.10;;
4214;SDS011;2121;48.062;7.850;2023-04-24T00:34:33;1.20;;;1.20;;
4214;SDS011;2121;48.062;7.850;2023-04-24T00:36:59;1.40;;;1.30;;
4214;SDS011;2121;48.062;7.850;2023-04-24T00:39:25;1.40;;;1.30;;
4214;SDS011;2121;48.062;7.850;2023-04-24T00:41:51;1.23;;;1.13;;
4214;SDS011;2121;48.062;7.850;2023-04-24T00:44:17;2.10;;;1.30;;
4214;SDS011;2121;48.062;7.850;2023-04-24T00:46:43;1.80;;;1.30;;
4214;SDS011;2121;48.062;7.850;2023-04-24T00:49:09;1.20;;;1.20;;
4214;SDS011;2121;48.062;7.850;2023-04-24T00:51:35;4.53;;;1.40;;
4214;SDS011;2121;48.062;7.850;2023-04-24T00:54:01;2.93;;;2.03;;
4214;SDS011;2121;48.062;7.850;2023-04-24T00:56:27;1.93;;;1.20;;
4214;SDS011;2121;48.062;7.850;2023-04-24T00:58:54;1.43;;;1.40;;
4214;SDS011;2121;48.062;7.850;2023-04-24T01:01:20;1.40;;;1.30;;
4214;SDS011;2121;48.062;7.850;2023-04-24T01:03:48;1.00;;;1.00;;
4214;SDS011;2121;48.062;7.850;2023-04-24T01:06:16;2.63;;;1.63;;
4214;SDS011;2121;48.062;7.850;2023-04-24T01:08:43;1.53;;;1.20;;
4214;SDS011;2121;48.062;7.850;2023-04-24T01:11:11;1.63;;;1.10;;
4214;SDS011;2121;48.062;7.850;2023-04-24T01:13:37;1.53;;;1.20;;
4214;SDS011;2121;48.062;7.850;2023-04-24T01:16:03;1.50;;;1.40;;
4214;SDS011;2121;48.062;7.850;2023-04-24T01:18:29;1.50;;;1.40;;
4214;SDS011;2121;48.062;7.850;2023-04-24T01:20:58;1.53;;;1.43;;
4214;SDS011;2121;48.062;7.850;2023-04-24T01:23:27;5.70;;;1.60;;
4214;SDS011;2121;48.062;7.850;2023-04-24T01:25:52;1.30;;;1.20;;
4214;SDS011;2121;48.062;7.850;2023-04-24T01:28:19;1.20;;;1.10;;
4214;SDS011;2121;48.062;7.850;2023-04-24T01:30:45;1.10;;;1.10;;
4214;SDS011;2121;48.062;7.850;2023-04-24T01:33:11;1.03;;;1.03;;
4214;SDS011;2121;48.062;7.850;2023-04-24T01:35:37;1.37;;;1.10;;
4214;SDS011;2121;48.062;7.850;2023-04-24T01:38:03;1.60;;;1.27;;
4214;SDS011;2121;48.062;7.850;2023-04-24T01:40:30;1.40;;;1.30;;
4214;SDS011;2121;48.062;7.850;2023-04-24T01:42:57;1.63;;;1.53;;
4214;SDS011;2121;48.062;7.850;2023-04-24T01:45:23;1.90;;;1.30;;
4214;SDS011;2121;48.062;7.850;2023-04-24T01:47:50;2.03;;;1.20;;
4214;SDS011;2121;48.062;7.850;2023-04-24T01:50:16;2.90;;;1.27;;
4214;SDS011;2121;48.062;7.850;2023-04-24T01:52:42;1.60;;;1.47;;
4214;SDS011;2121;48.062;7.850;2023-04-24T01:55:08;1.27;;;1.20;;
4214;SDS011;2121;48.062;7.850;2023-04-24T01:57:35;1.40;;;1.30;;
4214;SDS011;2121;48.062;7.850;2023-04-24T02:00:02;1.63;;;1.53;;
4214;SDS011;2121;48.062;7.850;2023-04-24T02:02:32;1.33;;;1.23;;
4214;SDS011;2121;48.062;7.850;2023-04-24T02:04:57;2.37;;;1.57;;
4214;SDS011;2121;48.062;7.850;2023-04-24T02:07:23;3.67;;;1.60;;
4214;SDS011;2121;48.062;7.850;2023-04-24T02:09:49;1.30;;;1.30;;
4214;SDS011;2121;48.062;7.850;2023-04-24T02:12:15;2.77;;;1.53;;
4214;SDS011;2121;48.062;7.850;2023-04-24T02:14:42;1.53;;;1.27;;
4214;SDS011;2121;48.062;7.850;2023-04-24T02:17:09;1.80;;;1.20;;
4214;SDS011;2121;48.062;7.850;2023-04-24T02:19:37;4.40;;;1.30;;
4214;SDS011;2121;48.062;7.850;2023-04-24T02:22:02;1.17;;;1.17;;
4214;SDS011;2121;48.062;7.850;2023-04-24T02:24:28;2.30;;;1.70;;
4214;SDS011;2121;48.062;7.850;2023-04-24T02:26:54;2.60;;;1.50;;
4214;SDS011;2121;48.062;7.850;2023-04-24T02:29:19;1.50;;;1.40;;
4214;SDS011;2121;48.062;7.850;2023-04-24T02:31:45;2.10;;;1.40;;
4214;SDS011;2121;48.062;7.850;2023-04-24T02:34:11;9.03;;;1.67;;
4214;SDS011;2121;48.062;7.850;2023-04-24T02:36:36;1.50;;;1.23;;
4214;SDS011;2121;48.062;7.850;2023-04-24T02:39:02;4.63;;;1.40;;
4214;SDS011;2121;48.062;7.850;2023-04-24T02:41:28;3.10;;;1.60;;
4214;SDS011;2121;48.062;7.850;2023-04-24T02:43:57;1.40;;;1.30;;
4214;SDS011;2121;48.062;7.850;2023-04-24T02:46:23;1.50;;;1.40;;
4214;SDS011;2121;48.062;7.850;2023-04-24T02:48:49;2.40;;;1.43;;
4214;SDS011;2121;48.062;7.850;2023-04-24T02:51:15;1.80;;;1.40;;
4214;SDS011;2121;48.062;7.850;2023-04-24T02:53:41;1.63;;;1.10;;
4214;SDS011;2121;48.062;7.850;2023-04-24T02:56:07;5.03;;;1.47;;
4214;SDS011;2121;48.062;7.850;2023-04-24T02:58:33;1.80;;;1.40;;
4214;SDS011;2121;48.062;7.850;2023-04-24T03:00:59;2.57;;;1.50;;
4214;SDS011;2121;48.062;7.850;2023-04-24T03:03:25;3.30;;;1.43;;
4214;SDS011;2121;48.062;7.850;2023-04-24T03:05:51;1.23;;;1.20;;
4214;SDS011;2121;48.062;7.850;2023-04-24T03:08:17;1.50;;;1.40;;
4214;SDS011;2121;48.062;7.850;2023-04-24T03:10:43;1.50;;;1.40;;
4214;SDS011;2121;48.062;7.850;2023-04-24T03:13:09;11.77;;;2.20;;
4214;SDS011;2121;48.062;7.850;2023-04-24T03:15:34;1.20;;;1.10;;
4214;SDS011;2121;48.062;7.850;2023-04-24T03:18:00;1.10;;;1.10;;
4214;SDS011;2121;48.062;7.850;2023-04-24T03:20:27;2.20;;;1.40;;
4214;SDS011;2121;48.062;7.850;2023-04-24T03:22:53;2.63;;;1.73;;
4214;SDS011;2121;48.062;7.850;2023-04-24T03:25:19;2.30;;;1.50;;
4214;SDS011;2121;48.062;7.850;2023-04-24T03:27:45;1.53;;;1.20;;
4214;SDS011;2121;48.062;7.850;2023-04-24T03:30:11;2.03;;;1.23;;
4214;SDS011;2121;48.062;7.850;2023-04-24T03:32:37;1.50;;;1.37;;
4214;SDS011;2121;48.062;7.850;2023-04-24T03:35:04;2.60;;;1.30;;
4214;SDS011;2121;48.062;7.850;2023-04-24T03:37:32;1.37;;;1.37;;
4214;SDS011;2121;48.062;7.850;2023-04-24T03:39:58;4.83;;;1.70;;
4214;SDS011;2121;48.062;7.850;2023-04-24T03:42:23;4.10;;;1.47;;
4214;SDS011;2121;48.062;7.850;2023-04-24T03:44:49;2.10;;;1.63;;
4214;SDS011;2121;48.062;7.850;2023-04-24T03:47:15;2.97;;;2.07;;
4214;SDS011;2121;48.062;7.850;2023-04-24T03:49:41;8.43;;;1.60;;
4214;SDS011;2121;48.062;7.850;2023-04-24T03:52:06;1.80;;;1.70;;
4214;SDS011;2121;48.062;7.850;2023-04-24T03:54:32;1.53;;;1.53;;
4214;SDS011;2121;48.062;7.850;2023-04-24T03:56:58;1.40;;;1.30;;
4214;SDS011;2121;48.062;7.850;2023-04-24T03:59:23;2.00;;;1.70;;
4214;SDS011;2121;48.062;7.850;2023-04-24T04:01:49;3.80;;;1.90;;
4214;SDS011;2121;48.062;7.850;2023-04-24T04:04:15;1.83;;;1.30;;
4214;SDS011;2121;48.062;7.850;2023-04-24T04:06:40;1.70;;;1.60;;
4214;SDS011;2121;48.062;7.850;2023-04-24T04:09:07;3.23;;;1.40;;
4214;SDS011;2121;48.062;7.850;2023-04-24T04:11:33;1.80;;;1.70;;
4214;SDS011;2121;48.062;7.850;2023-04-24T04:14:00;1.40;;;1.30;;
4214;SDS011;2121;48.062;7.850;2023-04-24T04:16:26;1.70;;;1.60;;
4214;SDS011;2121;48.062;7.850;2023-04-24T04:18:52;1.83;;;1.67;;
4214;SDS011;2121;48.062;7.850;2023-04-24T04:21:17;2.80;;;1.50;;
4214;SDS011;2121;48.062;7.850;2023-04-24T04:23:43;1.60;;;1.50;;
4214;SDS011;2121;48.062;7.850;2023-04-24T04:26:09;1.80;;;1.70;;
4214;SDS011;2121;48.062;7.850;2023-04-24T04:28:36;1.93;;;1.83;;
4214;SDS011;2121;48.062;7.850;2023-04-24T04:31:02;2.17;;;1.97;;
4214;SDS011;2121;48.062;7.850;2023-04-24T04:33:28;1.47;;;1.37;;
4214;SDS011;2121;48.062;7.850;2023-04-24T04:35:54;3.47;;;1.50;;
4214;SDS011;2121;48.062;7.850;2023-04-24T04:38:22;3.27;;;1.90;;
4214;SDS011;2121;48.062;7.850;2023-04-24T04:40:48;1.93;;;1.80;;
4214;SDS011;2121;48.062;7.850;2023-04-24T04:43:13;2.03;;;1.60;;
4214;SDS011;2121;48.062;7.850;2023-04-24T04:45:41;3.43;;;2.00;;
4214;SDS011;2121;48.062;7.850;2023-04-24T04:48:08;2.17;;;2.00;;
4214;SDS011;2121;48.062;7.850;2023-04-24T04:50:37;4.63;;;1.63;;
4214;SDS011;2121;48.062;7.850;2023-04-24T04:53:03;2.20;;;2.00;;
4214;SDS011;2121;48.062;7.850;2023-04-24T04:55:28;3.10;;;2.30;;
4214;SDS011;2121;48.062;7.850;2023-04-24T04:57:55;3.27;;;1.70;;
4214;SDS011;2121;48.062;7.850;2023-04-24T05:00:21;6.33;;;4.13;;
4214;SDS011;2121;48.062;7.850;2023-04-24T05:02:49;2.33;;;1.70;;
4214;SDS011;2121;48.062;7.850;2023-04-24T05:05:14;2.03;;;1.93;;
4214;SDS011;2121;48.062;7.850;2023-04-24T05:07:42;3.50;;;1.93;;
4214;SDS011;2121;48.062;7.850;2023-04-24T05:10:07;6.83;;;2.13;;
4214;SDS011;2121;48.062;7.850;2023-04-24T05:12:34;1.93;;;1.70;;
4214;SDS011;2121;48.062;7.850;2023-04-24T05:15:00;6.97;;;2.53;;
4214;SDS011;2121;48.062;7.850;2023-04-24T05:17:25;4.90;;;2.87;;
4214;SDS011;2121;48.062;7.850;2023-04-24T05:19:51;1.90;;;1.80;;
4214;SDS011;2121;48.062;7.850;2023-04-24T05:22:17;2.30;;;2.10;;
4214;SDS011;2121;48.062;7.850;2023-04-24T05:24:45;2.57;;;2.30;;
4214;SDS011;2121;48.062;7.850;2023-04-24T05:27:12;2.30;;;1.97;;
4214;SDS011;2121;48.062;7.850;2023-04-24T05:29:38;2.10;;;2.00;;
4214;SDS011;2121;48.062;7.850;2023-04-24T05:32:04;4.60;;;2.30;;
4214;SDS011;2121;48.062;7.850;2023-04-24T05:34:29;2.10;;;1.60;;
4214;SDS011;2121;48.062;7.850;2023-04-24T05:36:55;2.87;;;2.17;;
4214;SDS011;2121;48.062;7.850;2023-04-24T05:39:21;3.90;;;2.10;;
4214;SDS011;2121;48.062;7.850;2023-04-24T05:41:47;2.47;;;1.90;;
4214;SDS011;2121;48.062;7.850;2023-04-24T05:44:12;2.33;;;2.23;;
4214;SDS011;2121;48.062;7.850;2023-04-24T05:46:38;2.83;;;2.23;;
4214;SDS011;2121;48.062;7.850;2023-04-24T05:49:04;5.33;;;2.43;;
4214;SDS011;2121;48.062;7.850;2023-04-24T05:51:29;4.83;;;2.77;;
4214;SDS011;2121;48.062;7.850;2023-04-24T05:53:56;2.93;;;2.73;;
4214;SDS011;2121;48.062;7.850;2023-04-24T05:56:22;3.97;;;3.60;;
4214;SDS011;2121;48.062;7.850;2023-04-24T05:58:48;3.53;;;3.20;;
4214;SDS011;2121;48.062;7.850;2023-04-24T06:01:14;3.37;;;2.90;;
4214;SDS011;2121;48.062;7.850;2023-04-24T06:03:40;3.73;;;3.07;;
4214;SDS011;2121;48.062;7.850;2023-04-24T06:06:07;4.07;;;3.33;;
4214;SDS011;2121;48.062;7.850;2023-04-24T06:08:33;2.83;;;2.50;;
4214;SDS011;2121;48.062;7.850;2023-04-24T06:11:00;6.47;;;2.73;;
4214;SDS011;2121;48.062;7.850;2023-04-24T06:13:25;3.60;;;3.30;;
4214;SDS011;2121;48.062;7.850;2023-04-24T06:15:52;3.60;;;3.03;;
4214;SDS011;2121;48.062;7.850;2023-04-24T06:18:18;3.10;;;2.80;;
4214;SDS011;2121;48.062;7.850;2023-04-24T06:20:44;3.17;;;2.87;;
4214;SDS011;2121;48.062;7.850;2023-04-24T06:23:10;3.43;;;3.13;;
4214;SDS011;2121;48.062;7.850;2023-04-24T06:25:36;3.60;;;3.30;;
4214;SDS011;2121;48.062;7.850;2023-04-24T06:28:03;3.50;;;3.13;;
4214;SDS011;2121;48.062;7.850;2023-04-24T06:30:29;5.57;;;3.40;;
4214;SDS011;2121;48.062;7.850;2023-04-24T06:32:54;7.37;;;3.07;;
4214;SDS011;2121;48.062;7.850;2023-04-24T06:35:20;2.77;;;2.57;;
4214;SDS011;2121;48.062;7.850;2023-04-24T06:37:46;5.63;;;3.50;;
4214;SDS011;2121;48.062;7.850;2023-04-24T06:40:12;3.60;;;3.30;;
4214;SDS011;2121;48.062;7.850;2023-04-24T06:42:37;4.50;;;3.23;;
4214;SDS011;2121;48.062;7.850;2023-04-24T06:45:03;4.43;;;3.20;;
4214;SDS011;2121;48.062;7.850;2023-04-24T06:47:30;3.33;;;3.10;;
4214;SDS011;2121;48.062;7.850;2023-04-24T06:49:56;4.73;;;2.93;;
4214;SDS011;2121;48.062;7.850;2023-04-24T06:52:22;2.63;;;2.43;;
4214;SDS011;2121;48.062;7.850;2023-04-24T06:54:48;4.10;;;2.40;;
4214;SDS011;2121;48.062;7.850;2023-04-24T06:57:13;3.20;;;2.83;;
4214;SDS011;2121;48.062;7.850;2023-04-24T06:59:41;7.20;;;2.60;;
4214;SDS011;2121;48.062;7.850;2023-04-24T07:02:07;3.13;;;2.93;;
4214;SDS011;2121;48.062;7.850;2023-04-24T07:04:33;4.87;;;2.87;;
4214;SDS011;2121;48.062;7.850;2023-04-24T07:06:58;2.57;;;2.37;;
4214;SDS011;2121;48.062;7.850;2023-04-24T07:09:25;6.80;;;2.90;;
4214;SDS011;2121;48.062;7.850;2023-04-24T07:11:52;6.43;;;2.33;;
4214;SDS011;2121;48.062;7.850;2023-04-24T07:14:18;3.13;;;2.83;;
4214;SDS011;2121;48.062;7.850;2023-04-24T07:16:45;2.60;;;2.40;;
4214;SDS011;2121;48.062;7.850;2023-04-24T07:19:12;3.00;;;2.30;;
4214;SDS011;2121;48.062;7.850;2023-04-24T07:21:38;4.43;;;2.70;;
4214;SDS011;2121;48.062;7.850;2023-04-24T07:24:05;3.63;;;2.67;;
4214;SDS011;2121;48.062;7.850;2023-04-24T07:26:34;4.97;;;3.27;;
4214;SDS011;2121;48.062;7.850;2023-04-24T07:29:00;3.07;;;2.57;;
4214;SDS011;2121;48.062;7.850;2023-04-24T07:31:25;2.70;;;2.50;;
4214;SDS011;2121;48.062;7.850;2023-04-24T07:33:51;2.70;;;2.50;;
4214;SDS011;2121;48.062;7.850;2023-04-24T07:36:17;2.43;;;2.23;;
4214;SDS011;2121;48.062;7.850;2023-04-24T07:38:46;9.53;;;2.80;;
4214;SDS011;2121;48.062;7.850;2023-04-24T07:41:12;4.17;;;2.17;;
4214;SDS011;2121;48.062;7.850;2023-04-24T07:43:39;5.20;;;2.50;;
4214;SDS011;2121;48.062;7.850;2023-04-24T07:46:05;3.50;;;2.30;;
4214;SDS011;2121;48.062;7.850;2023-04-24T07:48:32;3.37;;;3.07;;
4214;SDS011;2121;48.062;7.850;2023-04-24T07:50:57;2.00;;;1.90;;
4214;SDS011;2121;48.062;7.850;2023-04-24T07:53:23;5.80;;;3.23;;
4214;SDS011;2121;48.062;7.850;2023-04-24T07:55:49;2.37;;;2.27;;
4214;SDS011;2121;48.062;7.850;2023-04-24T07:58:15;2.77;;;2.57;;
4214;SDS011;2121;48.062;7.850;2023-04-24T08:00:41;2.57;;;2.37;;
4214;SDS011;2121;48.062;7.850;2023-04-24T08:03:06;8.10;;;2.33;;
4214;SDS011;2121;48.062;7.850;2023-04-24T08:05:32;3.00;;;2.50;;
4214;SDS011;2121;48.062;7.850;2023-04-24T08:07:59;3.00;;;2.70;;
4214;SDS011;2121;48.062;7.850;2023-04-24T08:10:25;2.37;;;2.17;;
4214;SDS011;2121;48.062;7.850;2023-04-24T08:12:51;2.20;;;2.10;;
4214;SDS011;2121;48.062;7.850;2023-04-24T08:15:17;3.53;;;2.20;;
4214;SDS011;2121;48.062;7.850;2023-04-24T08:17:43;4.23;;;3.00;;
4214;SDS011;2121;48.062;7.850;2023-04-24T08:20:09;5.67;;;2.77;;
4214;SDS011;2121;48.062;7.850;2023-04-24T08:22:39;4.63;;;2.57;;
4214;SDS011;2121;48.062;7.850;2023-04-24T08:25:06;2.87;;;2.77;;
4214;SDS011;2121;48.062;7.850;2023-04-24T08:27:33;3.67;;;2.37;;
4214;SDS011;2121;48.062;7.850;2023-04-24T08:29:59;3.13;;;2.30;;
4214;SDS011;2121;48.062;7.850;2023-04-24T08:32:25;4.80;;;2.10;;
4214;SDS011;2121;48.062;7.850;2023-04-24T08:34:54;7.50;;;3.37;;
4214;SDS011;2121;48.062;7.850;2023-04-24T08:37:21;3.73;;;1.63;;
4214;SDS011;2121;48.062;7.850;2023-04-24T08:39:49;4.23;;;2.30;;
4214;SDS011;2121;48.062;7.850;2023-04-24T08:42:16;5.30;;;2.50;;
4214;SDS011;2121;48.062;7.850;2023-04-24T08:44:43;12.10;;;2.50;;
4214;SDS011;2121;48.062;7.850;2023-04-24T08:47:10;4.00;;;2.57;;
4214;SDS011;2121;48.062;7.850;2023-04-24T08:49:37;2.43;;;2.20;;
4214;SDS011;2121;48.062;7.850;2023-04-24T08:52:07;2.37;;;2.13;;
4214;SDS011;2121;48.062;7.850;2023-04-24T08:54:34;2.23;;;2.00;;
4214;SDS011;2121;48.062;7.850;2023-04-24T08:57:01;3.23;;;2.30;;
4214;SDS011;2121;48.062;7.850;2023-04-24T08:59:28;3.70;;;2.07;;
4214;SDS011;2121;48.062;7.850;2023-04-24T09:01:56;2.70;;;2.27;;
4214;SDS011;2121;48.062;7.850;2023-04-24T09:04:23;2.43;;;1.87;;
4214;SDS011;2121;48.062;7.850;2023-04-24T09:06:51;3.93;;;1.87;;
4214;SDS011;2121;48.062;7.850;2023-04-24T09:09:21;2.10;;;1.90;;
4214;SDS011;2121;48.062;7.850;2023-04-24T09:11:48;3.37;;;2.60;;
4214;SDS011;2121;48.062;7.850;2023-04-24T09:14:15;2.90;;;2.03;;
4214;SDS011;2121;48.062;7.850;2023-04-24T09:16:43;2.97;;;2.27;;
4214;SDS011;2121;48.062;7.850;2023-04-24T09:19:08;20.73;;;2.30;;
4214;SDS011;2121;48.062;7.850;2023-04-24T09:21:34;3.83;;;1.80;;
4214;SDS011;2121;48.062;7.850;2023-04-24T09:24:01;1.80;;;1.70;;
4214;SDS011;2121;48.062;7.850;2023-04-24T09:26:35;2.30;;;2.10;;
4214;SDS011;2121;48.062;7.850;2023-04-24T09:29:01;3.37;;;2.03;;
4214;SDS011;2121;48.062;7.850;2023-04-24T09:31:28;1.80;;;1.70;;
4214;SDS011;2121;48.062;7.850;2023-04-24T09:33:55;4.13;;;2.83;;
4214;SDS011;2121;48.062;7.850;2023-04-24T09:36:31;2.20;;;1.77;;
4214;SDS011;2121;48.062;7.850;2023-04-24T09:39:03;6.70;;;2.07;;
4214;SDS011;2121;48.062;7.850;2023-04-24T09:41:35;3.00;;;2.10;;
4214;SDS011;2121;48.062;7.850;2023-04-24T09:44:17;2.10;;;2.00;;
4214;SDS011;2121;48.062;7.850;2023-04-24T09:46:49;15.73;;;2.23;;
4214;SDS011;2121;48.062;7.850;2023-04-24T09:49:24;2.27;;;1.80;;
4214;SDS011;2121;48.062;7.850;2023-04-24T09:52:09;3.07;;;1.97;;
4214;SDS011;2121;48.062;7.850;2023-04-24T09:54:36;2.00;;;1.90;;
4214;SDS011;2121;48.062;7.850;2023-04-24T09:57:03;2.30;;;1.90;;
4214;SDS011;2121;48.062;7.850;2023-04-24T09:59:30;2.87;;;2.67;;
4214;SDS011;2121;48.062;7.850;2023-04-24T10:01:56;1.70;;;1.60;;
4214;SDS011;2121;48.062;7.850;2023-04-24T10:04:27;1.33;;;1.20;;
4214;SDS011;2121;48.062;7.850;2023-04-24T10:06:54;1.50;;;1.40;;
4214;SDS011;2121;48.062;7.850;2023-04-24T10:09:23;1.60;;;1.50;;
4214;SDS011;2121;48.062;7.850;2023-04-24T10:11:51;8.63;;;1.70;;
4214;SDS011;2121;48.062;7.850;2023-04-24T10:14:19;1.50;;;1.40;;
4214;SDS011;2121;48.062;7.850;2023-04-24T10:16:48;2.80;;;1.70;;
4214;SDS011;2121;48.062;7.850;2023-04-24T10:19:15;1.30;;;1.30;;
4214;SDS011;2121;48.062;7.850;2023-04-24T10:21:43;1.70;;;1.60;;
4214;SDS011;2121;48.062;7.850;2023-04-24T10:24:13;1.50;;;1.40;;
4214;SDS011;2121;48.062;7.850;2023-04-24T10:26:44;2.30;;;1.30;;
4214;SDS011;2121;48.062;7.850;2023-04-24T10:29:13;1.70;;;1.60;;
4214;SDS011;2121;48.062;7.850;2023-04-24T10:31:44;1.30;;;1.30;;
4214;SDS011;2121;48.062;7.850;2023-04-24T10:34:12;7.23;;;1.40;;
4214;SDS011;2121;48.062;7.850;2023-04-24T10:36:42;1.37;;;1.27;;
4214;SDS011;2121;48.062;7.850;2023-04-24T10:39:12;1.50;;;1.20;;
4214;SDS011;2121;48.062;7.850;2023-04-24T10:41:42;1.60;;;1.50;;
4214;SDS011;2121;48.062;7.850;2023-04-24T10:44:08;3.70;;;1.70;;
4214;SDS011;2121;48.062;7.850;2023-04-24T10:46:42;1.10;;;1.10;;
4214;SDS011;2121;48.062;7.850;2023-04-24T10:49:15;1.57;;;1.47;;
4214;SDS011;2121;48.062;7.850;2023-04-24T10:59:44;1.40;;;1.30;;
4214;SDS011;2121;48.062;7.850;2023-04-24T11:02:14;1.30;;;1.30;;
4214;SDS011;2121;48.062;7.850;2023-04-24T11:04:43;1.97;;;1.87;;
4214;SDS011;2121;48.062;7.850;2023-04-24T11:07:12;1.90;;;1.80;;
4214;SDS011;2121;48.062;7.850;2023-04-24T11:09:38;1.30;;;1.30;;
4214;SDS011;2121;48.062;7.850;2023-04-24T11:12:08;1.93;;;1.83;;
4214;SDS011;2121;48.062;7.850;2023-04-24T11:17:33;1.80;;;1.47;;
4214;SDS011;2121;48.062;7.850;2023-04-24T11:20:08;1.93;;;1.60;;
4214;SDS011;2121;48.062;7.850;2023-04-24T11:22:36;1.23;;;1.23;;
4214;SDS011;2121;48.062;7.850;2023-04-24T11:25:07;1.70;;;1.57;;
4214;SDS011;2121;48.062;7.850;2023-04-24T11:30:11;1.47;;;1.37;;
4214;SDS011;2121;48.062;7.850;2023-04-24T11:32:37;1.97;;;1.60;;
4214;SDS011;2121;48.062;7.850;2023-04-24T11:37:42;1.57;;;1.47;;
4214;SDS011;2121;48.062;7.850;2023-04-24T11:40:17;1.60;;;1.50;;
4214;SDS011;2121;48.062;7.850;2023-04-24T11:42:46;1.60;;;1.50;;
4214;SDS011;2121;48.062;7.850;2023-04-24T11:45:21;3.47;;;1.90;;
4214;SDS011;2121;48.062;7.850;2023-04-24T11:47:50;2.53;;;1.57;;
4214;SDS011;2121;48.062;7.850;2023-04-24T11:50:17;2.17;;;2.07;;
4214;SDS011;2121;48.062;7.850;2023-04-24T11:52:47;2.40;;;1.67;;
4214;SDS011;2121;48.062;7.850;2023-04-24T11:57:47;1.70;;;1.60;;
4214;SDS011;2121;48.062;7.850;2023-04-24T12:00:20;3.03;;;1.90;;
4214;SDS011;2121;48.062;7.850;2023-04-24T12:02:48;1.57;;;1.47;;
4214;SDS011;2121;48.062;7.850;2023-04-24T12:05:25;1.63;;;1.53;;
4214;SDS011;2121;48.062;7.850;2023-04-24T12:07:52;1.57;;;1.47;;
4214;SDS011;2121;48.062;7.850;2023-04-24T12:10:22;1.70;;;1.60;;
4214;SDS011;2121;48.062;7.850;2023-04-24T12:12:50;2.03;;;1.93;;
4214;SDS011;2121;48.062;7.850;2023-04-24T12:15:17;1.63;;;1.63;;
4214;SDS011;2121;48.062;7.850;2023-04-24T12:17:45;1.57;;;1.47;;
4214;SDS011;2121;48.062;7.850;2023-04-24T12:20:11;1.50;;;1.40;;
4214;SDS011;2121;48.062;7.850;2023-04-24T12:25:13;2.80;;;1.70;;
4214;SDS011;2121;48.062;7.850;2023-04-24T12:27:41;1.60;;;1.50;;
4214;SDS011;2121;48.062;7.850;2023-04-24T12:30:12;1.50;;;1.40;;
4214;SDS011;2121;48.062;7.850;2023-04-24T12:32:41;1.43;;;1.33;;
4214;SDS011;2121;48.062;7.850;2023-04-24T12:35:08;1.30;;;1.30;;
4214;SDS011;2121;48.062;7.850;2023-04-24T12:37:34;5.43;;;1.27;;
4214;SDS011;2121;48.062;7.850;2023-04-24T12:40:03;1.33;;;1.17;;
4214;SDS011;2121;48.062;7.850;2023-04-24T12:42:35;1.40;;;1.30;;
4214;SDS011;2121;48.062;7.850;2023-04-24T12:45:07;1.80;;;1.67;;
4214;SDS011;2121;48.062;7.850;2023-04-24T12:47:33;3.70;;;1.63;;
4214;SDS011;2121;48.062;7.850;2023-04-24T12:50:00;1.80;;;1.70;;
4214;SDS011;2121;48.062;7.850;2023-04-24T12:52:27;2.33;;;2.00;;
4214;SDS011;2121;48.062;7.850;2023-04-24T12:54:55;3.00;;;1.80;;
4214;SDS011;2121;48.062;7.850;2023-04-24T12:57:24;1.90;;;1.80;;
4214;SDS011;2121;48.062;7.850;2023-04-24T12:59:54;1.60;;;1.50;;
4214;SDS011;2121;48.062;7.850;2023-04-24T13:02:21;1.67;;;1.60;;
4214;SDS011;2121;48.062;7.850;2023-04-24T13:04:48;2.53;;;1.60;;
4214;SDS011;2121;48.062;7.850;2023-04-24T13:07:15;1.97;;;1.80;;
4214;SDS011;2121;48.062;7.850;2023-04-24T13:09:42;2.23;;;1.90;;
4214;SDS011;2121;48.062;7.850;2023-04-24T13:12:09;2.97;;;1.80;;
4214;SDS011;2121;48.062;7.850;2023-04-24T13:14:36;1.73;;;1.63;;
4214;SDS011;2121;48.062;7.850;2023-04-24T13:17:02;1.70;;;1.60;;
4214;SDS011;2121;48.062;7.850;2023-04-24T13:19:29;3.53;;;2.00;;
4214;SDS011;2121;48.062;7.850;2023-04-24T13:22:02;4.70;;;1.90;;
4214;SDS011;2121;48.062;7.850;2023-04-24T13:24:29;1.93;;;1.73;;
4214;SDS011;2121;48.062;7.850;2023-04-24T13:26:56;1.50;;;1.40;;
4214;SDS011;2121;48.062;7.850;2023-04-24T13:29:22;4.40;;;2.00;;
4214;SDS011;2121;48.062;7.850;2023-04-24T13:31:52;1.93;;;1.80;;
4214;SDS011;2121;48.062;7.850;2023-04-24T13:34:23;3.47;;;1.97;;
4214;SDS011;2121;48.062;7.850;2023-04-24T13:36:54;2.57;;;1.50;;
4214;SDS011;2121;48.062;7.850;2023-04-24T13:39:21;1.70;;;1.60;;
4214;SDS011;2121;48.062;7.850;2023-04-24T13:41:48;2.10;;;1.73;;
4214;SDS011;2121;48.062;7.850;2023-04-24T13:44:14;1.47;;;1.47;;
4214;SDS011;2121;48.062;7.850;2023-04-24T13:46:42;2.00;;;1.90;;
4214;SDS011;2121;48.062;7.850;2023-04-24T13:49:10;2.80;;;1.60;;
4214;SDS011;2121;48.062;7.850;2023-04-24T13:51:37;1.27;;;1.17;;
4214;SDS011;2121;48.062;7.850;2023-04-24T13:54:03;4.23;;;2.00;;
4214;SDS011;2121;48.062;7.850;2023-04-24T13:56:29;6.57;;;2.20;;
4214;SDS011;2121;48.062;7.850;2023-04-24T13:58:55;2.63;;;1.73;;
4214;SDS011;2121;48.062;7.850;2023-04-24T14:01:21;1.97;;;1.87;;
4214;SDS011;2121;48.062;7.850;2023-04-24T14:03:51;1.67;;;1.57;;
4214;SDS011;2121;48.062;7.850;2023-04-24T14:06:20;5.67;;;1.47;;
4214;SDS011;2121;48.062;7.850;2023-04-24T14:08:48;1.90;;;1.80;;
4214;SDS011;2121;48.062;7.850;2023-04-24T14:11:15;1.60;;;1.50;;
4214;SDS011;2121;48.062;7.850;2023-04-24T14:13:41;2.10;;;1.73;;
4214;SDS011;2121;48.062;7.850;2023-04-24T14:16:08;4.37;;;2.03;;
4214;SDS011;2121;48.062;7.850;2023-04-24T14:18:35;2.50;;;2.30;;
4214;SDS011;2121;48.062;7.850;2023-04-24T14:21:01;2.50;;;1.83;;
4214;SDS011;2121;48.062;7.850;2023-04-24T14:23:30;3.80;;;1.80;;
4214;SDS011;2121;48.062;7.850;2023-04-24T14:25:57;2.90;;;1.80;;
4214;SDS011;2121;48.062;7.850;2023-04-24T14:28:23;2.10;;;2.00;;
4214;SDS011;2121;48.062;7.850;2023-04-24T14:30:49;2.23;;;2.03;;
4214;SDS011;2121;48.062;7.850;2023-04-24T14:33:15;2.33;;;2.03;;
4214;SDS011;2121;48.062;7.850;2023-04-24T14:35:41;1.80;;;1.70;;
4214;SDS011;2121;48.062;7.850;2023-04-24T14:38:07;5.03;;;2.33;;
4214;SDS011;2121;48.062;7.850;2023-04-24T14:40:34;7.80;;;2.83;;
4214;SDS011;2121;48.062;7.850;2023-04-24T14:43:00;4.53;;;1.70;;
4214;SDS011;2121;48.062;7.850;2023-04-24T14:45:26;1.73;;;1.63;;
4214;SDS011;2121;48.062;7.850;2023-04-24T14:47:52;1.73;;;1.63;;
4214;SDS011;2121;48.062;7.850;2023-04-24T14:50:19;2.13;;;2.00;;
4214;SDS011;2121;48.062;7.850;2023-04-24T14:52:45;2.10;;;2.00;;
4214;SDS011;2121;48.062;7.850;2023-04-24T14:55:11;3.33;;;2.23;;
4214;SDS011;2121;48.062;7.850;2023-04-24T14:57:37;5.93;;;3.23;;
4214;SDS011;2121;48.062;7.850;2023-04-24T15:00:04;3.37;;;1.80;;
4214;SDS011;2121;48.062;7.850;2023-04-24T15:02:35;2.60;;;2.13;;
4214;SDS011;2121;48.062;7.850;2023-04-24T15:05:04;4.20;;;1.80;;
4214;SDS011;2121;48.062;7.850;2023-04-24T15:07:31;1.60;;;1.50;;
4214;SDS011;2121;48.062;7.850;2023-04-24T15:09:58;5.20;;;1.90;;
4214;SDS011;2121;48.062;7.850;2023-04-24T15:12:23;2.90;;;1.87;;
4214;SDS011;2121;48.062;7.850;2023-04-24T15:14:49;1.93;;;1.83;;
4214;SDS011;2121;48.062;7.850;2023-04-24T15:17:15;2.23;;;2.03;;
4214;SDS011;2121;48.062;7.850;2023-04-24T15:19:41;2.10;;;1.63;;
4214;SDS011;2121;48.062;7.850;2023-04-24T15:22:07;1.90;;;1.80;;
4214;SDS011;2121;48.062;7.850;2023-04-24T15:24:33;2.40;;;1.97;;
4214;SDS011;2121;48.062;7.850;2023-04-24T15:26:59;3.97;;;1.87;;
4214;SDS011;2121;48.062;7.850;2023-04-24T15:29:26;2.93;;;2.43;;
4214;SDS011;2121;48.062;7.850;2023-04-24T15:31:52;2.40;;;2.00;;
4214;SDS011;2121;48.062;7.850;2023-04-24T15:34:18;3.10;;;2.20;;